Terminal Aerodrome Forecast
Issued by NWS Wakefield, VA

Home | Current Version | Previous Version | Text Only | Print | Product List | Glossary On
Versions: 1 2 3 4 5 6 7 8 9 10 11 12 13 14 15 16 17 18 19
000
FTUS41 KAKQ 051744
TAFSBY
TAF
KSBY 051744Z 0518/0618 10006KT P6SM BKN030 BKN050
     FM060000 09003KT 6SM BR OVC100
     FM060900 10003KT 4SM -RA BR OVC050
     FM061200 13005KT P6SM SCT050=

USA.gov is the U.S. government's official web portal to all federal, state and local government web resources and services.